sensor_id;sensor_type;location;lat;lon;timestamp;P1;durP1;ratioP1;P2;durP2;ratioP2
53207;SDS011;39093;52.788;6.940;2023-05-07T00:00:02;15.63;;;11.23;;
53207;SDS011;39093;52.788;6.940;2023-05-07T00:02:34;14.20;;;10.47;;
53207;SDS011;39093;52.788;6.940;2023-05-07T00:05:02;14.55;;;11.30;;
53207;SDS011;39093;52.788;6.940;2023-05-07T00:07:29;14.45;;;11.25;;
53207;SDS011;39093;52.788;6.940;2023-05-07T00:09:56;17.02;;;11.45;;
53207;SDS011;39093;52.788;6.940;2023-05-07T00:12:23;20.23;;;12.85;;
53207;SDS011;39093;52.788;6.940;2023-05-07T00:14:50;16.48;;;12.35;;
53207;SDS011;39093;52.788;6.940;2023-05-07T00:17:17;17.00;;;12.18;;
53207;SDS011;39093;52.788;6.940;2023-05-07T00:19:44;14.23;;;11.95;;
53207;SDS011;39093;52.788;6.940;2023-05-07T00:22:11;14.32;;;11.73;;
53207;SDS011;39093;52.788;6.940;2023-05-07T00:24:38;15.55;;;12.13;;
53207;SDS011;39093;52.788;6.940;2023-05-07T00:27:05;14.63;;;12.25;;
53207;SDS011;39093;52.788;6.940;2023-05-07T00:29:32;17.35;;;12.40;;
53207;SDS011;39093;52.788;6.940;2023-05-07T00:31:59;15.52;;;12.10;;
53207;SDS011;39093;52.788;6.940;2023-05-07T00:34:26;17.55;;;12.38;;
53207;SDS011;39093;52.788;6.940;2023-05-07T00:36:53;19.00;;;13.57;;
53207;SDS011;39093;52.788;6.940;2023-05-07T00:39:20;17.27;;;12.20;;
53207;SDS011;39093;52.788;6.940;2023-05-07T00:41:47;16.50;;;12.40;;
53207;SDS011;39093;52.788;6.940;2023-05-07T00:44:14;18.60;;;14.55;;
53207;SDS011;39093;52.788;6.940;2023-05-07T00:46:41;15.73;;;12.77;;
53207;SDS011;39093;52.788;6.940;2023-05-07T00:49:08;16.70;;;14.07;;
53207;SDS011;39093;52.788;6.940;2023-05-07T00:51:34;16.05;;;13.77;;
53207;SDS011;39093;52.788;6.940;2023-05-07T00:54:02;17.98;;;13.20;;
53207;SDS011;39093;52.788;6.940;2023-05-07T00:56:29;18.08;;;14.10;;
53207;SDS011;39093;52.788;6.940;2023-05-07T00:58:57;20.15;;;14.85;;
53207;SDS011;39093;52.788;6.940;2023-05-07T01:01:24;18.60;;;15.18;;
53207;SDS011;39093;52.788;6.940;2023-05-07T01:03:51;18.95;;;14.43;;
53207;SDS011;39093;52.788;6.940;2023-05-07T01:06:20;21.60;;;15.75;;
53207;SDS011;39093;52.788;6.940;2023-05-07T01:08:48;20.15;;;14.60;;
53207;SDS011;39093;52.788;6.940;2023-05-07T01:11:16;18.92;;;14.88;;
53207;SDS011;39093;52.788;6.940;2023-05-07T01:13:46;20.40;;;15.02;;
53207;SDS011;39093;52.788;6.940;2023-05-07T01:16:14;18.60;;;15.30;;
53207;SDS011;39093;52.788;6.940;2023-05-07T01:18:40;20.70;;;16.45;;
53207;SDS011;39093;52.788;6.940;2023-05-07T01:21:08;21.42;;;16.35;;
53207;SDS011;39093;52.788;6.940;2023-05-07T01:23:37;20.40;;;15.63;;
53207;SDS011;39093;52.788;6.940;2023-05-07T01:26:05;23.50;;;17.63;;
53207;SDS011;39093;52.788;6.940;2023-05-07T01:28:32;22.63;;;16.45;;
53207;SDS011;39093;52.788;6.940;2023-05-07T01:31:00;20.60;;;17.48;;
53207;SDS011;39093;52.788;6.940;2023-05-07T01:33:30;23.05;;;17.08;;
53207;SDS011;39093;52.788;6.940;2023-05-07T01:35:59;21.90;;;17.55;;
53207;SDS011;39093;52.788;6.940;2023-05-07T01:38:29;22.98;;;18.00;;
53207;SDS011;39093;52.788;6.940;2023-05-07T01:40:57;24.95;;;18.23;;
53207;SDS011;39093;52.788;6.940;2023-05-07T01:43:24;24.48;;;18.73;;
53207;SDS011;39093;52.788;6.940;2023-05-07T01:45:51;26.08;;;18.92;;
53207;SDS011;39093;52.788;6.940;2023-05-07T01:48:19;23.25;;;17.85;;
53207;SDS011;39093;52.788;6.940;2023-05-07T01:50:46;25.67;;;19.77;;
53207;SDS011;39093;52.788;6.940;2023-05-07T01:53:14;31.63;;;18.98;;
53207;SDS011;39093;52.788;6.940;2023-05-07T01:55:41;28.55;;;18.95;;
53207;SDS011;39093;52.788;6.940;2023-05-07T01:58:08;27.25;;;19.60;;
53207;SDS011;39093;52.788;6.940;2023-05-07T02:00:35;25.95;;;18.55;;
53207;SDS011;39093;52.788;6.940;2023-05-07T02:03:02;25.75;;;19.90;;
53207;SDS011;39093;52.788;6.940;2023-05-07T02:05:29;26.45;;;20.48;;
53207;SDS011;39093;52.788;6.940;2023-05-07T02:07:56;29.17;;;19.30;;
53207;SDS011;39093;52.788;6.940;2023-05-07T02:10:23;27.00;;;20.67;;
53207;SDS011;39093;52.788;6.940;2023-05-07T02:12:50;24.70;;;19.52;;
53207;SDS011;39093;52.788;6.940;2023-05-07T02:15:17;24.60;;;20.25;;
53207;SDS011;39093;52.788;6.940;2023-05-07T02:20:30;27.58;;;21.27;;
53207;SDS011;39093;52.788;6.940;2023-05-07T02:22:57;27.38;;;19.95;;
53207;SDS011;39093;52.788;6.940;2023-05-07T02:25:24;28.50;;;21.88;;
53207;SDS011;39093;52.788;6.940;2023-05-07T02:27:51;30.25;;;21.83;;
53207;SDS011;39093;52.788;6.940;2023-05-07T02:30:18;31.73;;;21.35;;
53207;SDS011;39093;52.788;6.940;2023-05-07T02:32:47;33.10;;;23.27;;
53207;SDS011;39093;52.788;6.940;2023-05-07T02:35:14;32.33;;;22.92;;
53207;SDS011;39093;52.788;6.940;2023-05-07T02:37:41;30.48;;;22.95;;
53207;SDS011;39093;52.788;6.940;2023-05-07T02:40:08;34.78;;;24.13;;
53207;SDS011;39093;52.788;6.940;2023-05-07T02:42:36;34.60;;;24.50;;
53207;SDS011;39093;52.788;6.940;2023-05-07T02:45:03;31.83;;;23.67;;
53207;SDS011;39093;52.788;6.940;2023-05-07T02:47:31;32.33;;;24.10;;
53207;SDS011;39093;52.788;6.940;2023-05-07T02:49:57;37.15;;;24.65;;
53207;SDS011;39093;52.788;6.940;2023-05-07T02:52:24;37.53;;;26.63;;
53207;SDS011;39093;52.788;6.940;2023-05-07T02:54:51;35.45;;;25.50;;
53207;SDS011;39093;52.788;6.940;2023-05-07T02:57:18;35.55;;;25.52;;
53207;SDS011;39093;52.788;6.940;2023-05-07T02:59:45;40.15;;;25.63;;
53207;SDS011;39093;52.788;6.940;2023-05-07T03:02:12;34.05;;;24.85;;
53207;SDS011;39093;52.788;6.940;2023-05-07T03:04:39;35.72;;;24.88;;
53207;SDS011;39093;52.788;6.940;2023-05-07T03:07:06;32.13;;;24.23;;
53207;SDS011;39093;52.788;6.940;2023-05-07T03:09:33;35.05;;;25.95;;
53207;SDS011;39093;52.788;6.940;2023-05-07T03:12:00;37.63;;;25.63;;
53207;SDS011;39093;52.788;6.940;2023-05-07T03:14:28;35.38;;;25.30;;
53207;SDS011;39093;52.788;6.940;2023-05-07T03:16:54;33.85;;;25.27;;
53207;SDS011;39093;52.788;6.940;2023-05-07T03:19:21;35.58;;;26.27;;
53207;SDS011;39093;52.788;6.940;2023-05-07T03:21:48;35.22;;;25.42;;
53207;SDS011;39093;52.788;6.940;2023-05-07T03:24:15;36.72;;;27.40;;
53207;SDS011;39093;52.788;6.940;2023-05-07T03:26:42;35.63;;;25.67;;
53207;SDS011;39093;52.788;6.940;2023-05-07T03:29:09;37.35;;;26.17;;
53207;SDS011;39093;52.788;6.940;2023-05-07T03:31:36;34.15;;;26.00;;
53207;SDS011;39093;52.788;6.940;2023-05-07T03:34:03;34.17;;;24.73;;
53207;SDS011;39093;52.788;6.940;2023-05-07T03:36:30;36.38;;;26.60;;
53207;SDS011;39093;52.788;6.940;2023-05-07T03:38:57;31.10;;;24.30;;
53207;SDS011;39093;52.788;6.940;2023-05-07T03:41:24;39.03;;;25.33;;
53207;SDS011;39093;52.788;6.940;2023-05-07T03:43:52;34.05;;;24.50;;
53207;SDS011;39093;52.788;6.940;2023-05-07T03:46:19;33.08;;;24.75;;
53207;SDS011;39093;52.788;6.940;2023-05-07T03:48:46;31.75;;;24.70;;
53207;SDS011;39093;52.788;6.940;2023-05-07T03:51:13;33.00;;;24.10;;
53207;SDS011;39093;52.788;6.940;2023-05-07T03:53:40;35.72;;;24.83;;
53207;SDS011;39093;52.788;6.940;2023-05-07T03:56:06;32.05;;;23.23;;
53207;SDS011;39093;52.788;6.940;2023-05-07T03:58:33;32.30;;;24.27;;
53207;SDS011;39093;52.788;6.940;2023-05-07T04:01:01;31.65;;;23.10;;
53207;SDS011;39093;52.788;6.940;2023-05-07T04:03:28;30.23;;;23.33;;
53207;SDS011;39093;52.788;6.940;2023-05-07T04:05:55;34.20;;;24.25;;
53207;SDS011;39093;52.788;6.940;2023-05-07T04:08:22;26.13;;;21.48;;
53207;SDS011;39093;52.788;6.940;2023-05-07T04:10:54;30.58;;;21.85;;
53207;SDS011;39093;52.788;6.940;2023-05-07T04:13:24;29.85;;;21.58;;
53207;SDS011;39093;52.788;6.940;2023-05-07T04:15:52;26.17;;;20.83;;
53207;SDS011;39093;52.788;6.940;2023-05-07T04:18:20;27.30;;;21.33;;
53207;SDS011;39093;52.788;6.940;2023-05-07T04:20:47;28.75;;;21.63;;
53207;SDS011;39093;52.788;6.940;2023-05-07T04:23:15;26.73;;;20.77;;
53207;SDS011;39093;52.788;6.940;2023-05-07T04:25:42;26.17;;;20.73;;
53207;SDS011;39093;52.788;6.940;2023-05-07T04:28:09;28.88;;;20.88;;
53207;SDS011;39093;52.788;6.940;2023-05-07T04:30:36;29.38;;;20.98;;
53207;SDS011;39093;52.788;6.940;2023-05-07T04:33:03;28.85;;;21.27;;
53207;SDS011;39093;52.788;6.940;2023-05-07T04:35:30;27.67;;;20.58;;
53207;SDS011;39093;52.788;6.940;2023-05-07T04:37:57;29.05;;;20.13;;
53207;SDS011;39093;52.788;6.940;2023-05-07T04:40:24;26.67;;;20.50;;
53207;SDS011;39093;52.788;6.940;2023-05-07T04:42:51;26.98;;;20.80;;
53207;SDS011;39093;52.788;6.940;2023-05-07T04:45:19;24.85;;;20.00;;
53207;SDS011;39093;52.788;6.940;2023-05-07T04:47:46;24.80;;;20.45;;
53207;SDS011;39093;52.788;6.940;2023-05-07T04:50:13;27.25;;;21.35;;
53207;SDS011;39093;52.788;6.940;2023-05-07T04:52:40;27.35;;;20.20;;
53207;SDS011;39093;52.788;6.940;2023-05-07T04:55:07;30.88;;;21.45;;
53207;SDS011;39093;52.788;6.940;2023-05-07T04:57:34;22.77;;;18.50;;
53207;SDS011;39093;52.788;6.940;2023-05-07T05:00:01;24.38;;;19.75;;
53207;SDS011;39093;52.788;6.940;2023-05-07T05:02:30;28.00;;;19.98;;
53207;SDS011;39093;52.788;6.940;2023-05-07T05:04:57;24.20;;;20.02;;
53207;SDS011;39093;52.788;6.940;2023-05-07T05:07:25;26.52;;;20.67;;
53207;SDS011;39093;52.788;6.940;2023-05-07T05:09:52;25.20;;;20.23;;
53207;SDS011;39093;52.788;6.940;2023-05-07T05:12:18;30.33;;;20.65;;
53207;SDS011;39093;52.788;6.940;2023-05-07T05:14:45;26.02;;;20.30;;
53207;SDS011;39093;52.788;6.940;2023-05-07T05:17:13;24.27;;;19.02;;
53207;SDS011;39093;52.788;6.940;2023-05-07T05:19:40;25.80;;;20.63;;
53207;SDS011;39093;52.788;6.940;2023-05-07T05:22:07;30.27;;;20.67;;
53207;SDS011;39093;52.788;6.940;2023-05-07T05:24:34;25.33;;;20.63;;
53207;SDS011;39093;52.788;6.940;2023-05-07T05:27:01;27.13;;;20.17;;
53207;SDS011;39093;52.788;6.940;2023-05-07T05:29:28;27.02;;;20.17;;
53207;SDS011;39093;52.788;6.940;2023-05-07T05:31:55;26.00;;;20.50;;
53207;SDS011;39093;52.788;6.940;2023-05-07T05:34:22;26.65;;;19.92;;
53207;SDS011;39093;52.788;6.940;2023-05-07T05:36:49;28.35;;;20.40;;
53207;SDS011;39093;52.788;6.940;2023-05-07T05:39:16;25.63;;;20.77;;
53207;SDS011;39093;52.788;6.940;2023-05-07T05:41:43;28.85;;;19.90;;
53207;SDS011;39093;52.788;6.940;2023-05-07T05:44:10;25.00;;;20.02;;
53207;SDS011;39093;52.788;6.940;2023-05-07T05:46:37;29.65;;;22.83;;
53207;SDS011;39093;52.788;6.940;2023-05-07T05:49:04;27.65;;;20.90;;
53207;SDS011;39093;52.788;6.940;2023-05-07T05:51:30;27.35;;;19.85;;
53207;SDS011;39093;52.788;6.940;2023-05-07T05:53:57;32.55;;;23.05;;
53207;SDS011;39093;52.788;6.940;2023-05-07T05:56:24;31.92;;;21.83;;
53207;SDS011;39093;52.788;6.940;2023-05-07T05:58:52;25.23;;;20.45;;
53207;SDS011;39093;52.788;6.940;2023-05-07T06:01:19;31.42;;;22.13;;
53207;SDS011;39093;52.788;6.940;2023-05-07T06:03:46;28.52;;;21.85;;
53207;SDS011;39093;52.788;6.940;2023-05-07T06:06:12;29.25;;;22.08;;
53207;SDS011;39093;52.788;6.940;2023-05-07T06:08:40;28.15;;;21.17;;
53207;SDS011;39093;52.788;6.940;2023-05-07T06:11:08;31.70;;;22.50;;
53207;SDS011;39093;52.788;6.940;2023-05-07T06:13:34;27.77;;;22.00;;
53207;SDS011;39093;52.788;6.940;2023-05-07T06:16:01;29.83;;;22.13;;
53207;SDS011;39093;52.788;6.940;2023-05-07T06:18:28;29.70;;;21.92;;
53207;SDS011;39093;52.788;6.940;2023-05-07T06:20:55;27.50;;;21.50;;
53207;SDS011;39093;52.788;6.940;2023-05-07T06:23:22;27.10;;;22.35;;
53207;SDS011;39093;52.788;6.940;2023-05-07T06:25:49;29.45;;;22.20;;
53207;SDS011;39093;52.788;6.940;2023-05-07T06:28:16;29.40;;;21.25;;
53207;SDS011;39093;52.788;6.940;2023-05-07T06:30:43;27.77;;;21.40;;
53207;SDS011;39093;52.788;6.940;2023-05-07T06:33:11;30.23;;;22.27;;
53207;SDS011;39093;52.788;6.940;2023-05-07T06:35:38;33.55;;;23.88;;
53207;SDS011;39093;52.788;6.940;2023-05-07T06:38:05;33.15;;;23.35;;
53207;SDS011;39093;52.788;6.940;2023-05-07T06:40:31;30.85;;;23.23;;
53207;SDS011;39093;52.788;6.940;2023-05-07T06:42:58;34.13;;;22.92;;
53207;SDS011;39093;52.788;6.940;2023-05-07T06:45:25;33.85;;;24.77;;
53207;SDS011;39093;52.788;6.940;2023-05-07T06:47:52;30.70;;;22.85;;
53207;SDS011;39093;52.788;6.940;2023-05-07T06:50:19;32.72;;;23.95;;
53207;SDS011;39093;52.788;6.940;2023-05-07T06:52:46;32.58;;;23.83;;
53207;SDS011;39093;52.788;6.940;2023-05-07T06:55:13;31.17;;;23.13;;
53207;SDS011;39093;52.788;6.940;2023-05-07T06:57:40;32.60;;;23.58;;
53207;SDS011;39093;52.788;6.940;2023-05-07T07:00:07;27.75;;;22.30;;
53207;SDS011;39093;52.788;6.940;2023-05-07T07:02:36;30.10;;;23.83;;
53207;SDS011;39093;52.788;6.940;2023-05-07T07:05:03;33.88;;;25.67;;
53207;SDS011;39093;52.788;6.940;2023-05-07T07:07:31;33.13;;;24.60;;
53207;SDS011;39093;52.788;6.940;2023-05-07T07:09:58;30.80;;;23.52;;
53207;SDS011;39093;52.788;6.940;2023-05-07T07:12:25;31.77;;;23.55;;
53207;SDS011;39093;52.788;6.940;2023-05-07T07:14:52;30.83;;;24.55;;
53207;SDS011;39093;52.788;6.940;2023-05-07T07:17:20;33.83;;;24.15;;
53207;SDS011;39093;52.788;6.940;2023-05-07T07:19:47;30.75;;;22.58;;
53207;SDS011;39093;52.788;6.940;2023-05-07T07:22:14;31.80;;;22.23;;
53207;SDS011;39093;52.788;6.940;2023-05-07T07:24:41;32.88;;;24.92;;
53207;SDS011;39093;52.788;6.940;2023-05-07T07:27:08;29.27;;;22.73;;
53207;SDS011;39093;52.788;6.940;2023-05-07T07:29:35;30.23;;;24.67;;
53207;SDS011;39093;52.788;6.940;2023-05-07T07:32:01;28.85;;;22.80;;
53207;SDS011;39093;52.788;6.940;2023-05-07T07:34:29;32.58;;;23.80;;
53207;SDS011;39093;52.788;6.940;2023-05-07T07:36:56;31.23;;;22.67;;
53207;SDS011;39093;52.788;6.940;2023-05-07T07:39:23;35.42;;;25.05;;
53207;SDS011;39093;52.788;6.940;2023-05-07T07:41:50;31.27;;;23.27;;
53207;SDS011;39093;52.788;6.940;2023-05-07T07:44:16;28.13;;;22.73;;
53207;SDS011;39093;52.788;6.940;2023-05-07T07:46:44;27.67;;;21.02;;
53207;SDS011;39093;52.788;6.940;2023-05-07T07:49:11;27.83;;;23.35;;
53207;SDS011;39093;52.788;6.940;2023-05-07T07:51:38;26.35;;;22.50;;
53207;SDS011;39093;52.788;6.940;2023-05-07T07:54:06;29.80;;;23.08;;
53207;SDS011;39093;52.788;6.940;2023-05-07T07:56:34;29.92;;;22.83;;
53207;SDS011;39093;52.788;6.940;2023-05-07T07:59:01;28.70;;;22.00;;
53207;SDS011;39093;52.788;6.940;2023-05-07T08:01:29;31.23;;;22.52;;
53207;SDS011;39093;52.788;6.940;2023-05-07T08:03:56;30.63;;;23.20;;
53207;SDS011;39093;52.788;6.940;2023-05-07T08:06:29;31.35;;;22.75;;
53207;SDS011;39093;52.788;6.940;2023-05-07T08:08:56;29.13;;;23.10;;
53207;SDS011;39093;52.788;6.940;2023-05-07T08:11:23;26.00;;;21.27;;
53207;SDS011;39093;52.788;6.940;2023-05-07T08:13:50;28.90;;;21.40;;
53207;SDS011;39093;52.788;6.940;2023-05-07T08:16:17;29.20;;;21.15;;
53207;SDS011;39093;52.788;6.940;2023-05-07T08:18:44;26.20;;;20.33;;
53207;SDS011;39093;52.788;6.940;2023-05-07T08:21:11;27.30;;;20.52;;
53207;SDS011;39093;52.788;6.940;2023-05-07T08:23:37;26.73;;;20.45;;
53207;SDS011;39093;52.788;6.940;2023-05-07T08:26:04;26.50;;;20.00;;
53207;SDS011;39093;52.788;6.940;2023-05-07T08:28:31;27.35;;;20.58;;
53207;SDS011;39093;52.788;6.940;2023-05-07T08:31:04;26.63;;;20.33;;
53207;SDS011;39093;52.788;6.940;2023-05-07T08:35:58;26.98;;;20.60;;
53207;SDS011;39093;52.788;6.940;2023-05-07T08:38:25;26.52;;;19.25;;
53207;SDS011;39093;52.788;6.940;2023-05-07T08:40:55;28.02;;;20.58;;
53207;SDS011;39093;52.788;6.940;2023-05-07T08:43:21;27.15;;;19.13;;
53207;SDS011;39093;52.788;6.940;2023-05-07T08:45:53;24.05;;;19.70;;
53207;SDS011;39093;52.788;6.940;2023-05-07T08:48:24;23.23;;;17.15;;
53207;SDS011;39093;52.788;6.940;2023-05-07T08:50:53;24.30;;;19.73;;
53207;SDS011;39093;52.788;6.940;2023-05-07T08:53:20;24.42;;;19.30;;
53207;SDS011;39093;52.788;6.940;2023-05-07T08:55:47;22.48;;;18.08;;
53207;SDS011;39093;52.788;6.940;2023-05-07T08:58:15;23.35;;;17.98;;
53207;SDS011;39093;52.788;6.940;2023-05-07T09:00:42;21.33;;;17.42;;
53207;SDS011;39093;52.788;6.940;2023-05-07T09:03:09;22.77;;;16.85;;
53207;SDS011;39093;52.788;6.940;2023-05-07T09:05:40;20.30;;;16.05;;
53207;SDS011;39093;52.788;6.940;2023-05-07T09:08:07;23.48;;;18.27;;
53207;SDS011;39093;52.788;6.940;2023-05-07T09:10:34;19.10;;;15.57;;
53207;SDS011;39093;52.788;6.940;2023-05-07T09:13:02;19.15;;;16.40;;
53207;SDS011;39093;52.788;6.940;2023-05-07T09:15:30;17.58;;;15.23;;
53207;SDS011;39093;52.788;6.940;2023-05-07T09:18:00;19.55;;;15.43;;
53207;SDS011;39093;52.788;6.940;2023-05-07T09:20:29;19.83;;;16.10;;
53207;SDS011;39093;52.788;6.940;2023-05-07T09:22:57;18.77;;;16.17;;
53207;SDS011;39093;52.788;6.940;2023-05-07T09:25:30;23.02;;;15.15;;
53207;SDS011;39093;52.788;6.940;2023-05-07T09:27:58;16.20;;;14.25;;
53207;SDS011;39093;52.788;6.940;2023-05-07T09:30:29;16.77;;;14.57;;
53207;SDS011;39093;52.788;6.940;2023-05-07T09:32:58;16.85;;;14.13;;
53207;SDS011;39093;52.788;6.940;2023-05-07T09:35:26;15.70;;;13.75;;
53207;SDS011;39093;52.788;6.940;2023-05-07T09:37:55;15.77;;;13.60;;
53207;SDS011;39093;52.788;6.940;2023-05-07T09:40:24;17.75;;;13.60;;
53207;SDS011;39093;52.788;6.940;2023-05-07T09:42:52;16.13;;;13.43;;
53207;SDS011;39093;52.788;6.940;2023-05-07T09:45:24;14.77;;;12.45;;
53207;SDS011;39093;52.788;6.940;2023-05-07T09:47:56;15.25;;;13.55;;
53207;SDS011;39093;52.788;6.940;2023-05-07T09:50:29;16.38;;;12.82;;
53207;SDS011;39093;52.788;6.940;2023-05-07T09:53:03;18.13;;;13.88;;
53207;SDS011;39093;52.788;6.940;2023-05-07T09:55:30;14.30;;;12.77;;
53207;SDS011;39093;52.788;6.940;2023-05-07T09:58:00;14.73;;;12.57;;
53207;SDS011;39093;52.788;6.940;2023-05-07T10:00:28;14.50;;;12.48;;
53207;SDS011;39093;52.788;6.940;2023-05-07T10:02:57;14.88;;;12.88;;
53207;SDS011;39093;52.788;6.940;2023-05-07T10:05:24;15.20;;;13.02;;
53207;SDS011;39093;52.788;6.940;2023-05-07T10:07:52;13.10;;;11.70;;
53207;SDS011;39093;52.788;6.940;2023-05-07T10:10:20;14.13;;;12.60;;
53207;SDS011;39093;52.788;6.940;2023-05-07T10:12:48;15.25;;;11.93;;
53207;SDS011;39093;52.788;6.940;2023-05-07T10:15:16;13.73;;;12.10;;
53207;SDS011;39093;52.788;6.940;2023-05-07T10:17:43;14.85;;;12.00;;
53207;SDS011;39093;52.788;6.940;2023-05-07T10:20:11;12.90;;;11.60;;
53207;SDS011;39093;52.788;6.940;2023-05-07T10:22:39;12.95;;;11.60;;
53207;SDS011;39093;52.788;6.940;2023-05-07T10:28:09;12.98;;;11.52;;
53207;SDS011;39093;52.788;6.940;2023-05-07T10:33:28;14.25;;;10.98;;
53207;SDS011;39093;52.788;6.940;2023-05-07T10:36:00;16.05;;;11.38;;
53207;SDS011;39093;52.788;6.940;2023-05-07T10:38:30;13.45;;;11.32;;
53207;SDS011;39093;52.788;6.940;2023-05-07T10:40:57;15.00;;;11.43;;
53207;SDS011;39093;52.788;6.940;2023-05-07T10:43:24;13.75;;;11.65;;
53207;SDS011;39093;52.788;6.940;2023-05-07T10:51:28;12.50;;;11.15;;
53207;SDS011;39093;52.788;6.940;2023-05-07T10:56:39;12.70;;;10.68;;
53207;SDS011;39093;52.788;6.940;2023-05-07T11:01:57;14.10;;;12.35;;
53207;SDS011;39093;52.788;6.940;2023-05-07T11:04:32;14.85;;;11.98;;
53207;SDS011;39093;52.788;6.940;2023-05-07T11:15:08;13.90;;;11.05;;
53207;SDS011;39093;52.788;6.940;2023-05-07T11:17:52;14.23;;;11.35;;
53207;SDS011;39093;52.788;6.940;2023-05-07T11:20:43;13.52;;;10.93;;
53207;SDS011;39093;52.788;6.940;2023-05-07T11:26:02;13.93;;;10.93;;
53207;SDS011;39093;52.788;6.940;2023-05-07T11:28:37;13.02;;;10.07;;
53207;SDS011;39093;52.788;6.940;2023-05-07T11:31:05;13.32;;;10.32;;
53207;SDS011;39093;52.788;6.940;2023-05-07T11:33:33;11.55;;;9.70;;
53207;SDS011;39093;52.788;6.940;2023-05-07T11:36:01;10.70;;;9.60;;
53207;SDS011;39093;52.788;6.940;2023-05-07T11:38:29;12.65;;;10.07;;
53207;SDS011;39093;52.788;6.940;2023-05-07T11:40:57;13.40;;;10.65;;
53207;SDS011;39093;52.788;6.940;2023-05-07T11:43:30;11.57;;;10.10;;
53207;SDS011;39093;52.788;6.940;2023-05-07T11:46:11;11.30;;;10.05;;
53207;SDS011;39093;52.788;6.940;2023-05-07T11:48:40;14.00;;;9.05;;
53207;SDS011;39093;52.788;6.940;2023-05-07T11:51:07;10.32;;;9.23;;
53207;SDS011;39093;52.788;6.940;2023-05-07T11:53:41;10.70;;;9.05;;
53207;SDS011;39093;52.788;6.940;2023-05-07T11:56:11;9.95;;;8.75;;
53207;SDS011;39093;52.788;6.940;2023-05-07T11:58:39;9.35;;;8.35;;
53207;SDS011;39093;52.788;6.940;2023-05-07T12:01:08;11.05;;;8.57;;
53207;SDS011;39093;52.788;6.940;2023-05-07T12:03:37;10.57;;;8.43;;
53207;SDS011;39093;52.788;6.940;2023-05-07T12:06:09;9.55;;;8.60;;
53207;SDS011;39093;52.788;6.940;2023-05-07T12:08:37;9.93;;;8.93;;
53207;SDS011;39093;52.788;6.940;2023-05-07T12:11:24;9.55;;;8.55;;
53207;SDS011;39093;52.788;6.940;2023-05-07T12:13:53;9.93;;;8.40;;
53207;SDS011;39093;52.788;6.940;2023-05-07T12:16:24;11.82;;;7.88;;
53207;SDS011;39093;52.788;6.940;2023-05-07T12:18:53;9.10;;;8.23;;
53207;SDS011;39093;52.788;6.940;2023-05-07T12:21:21;9.23;;;8.32;;
53207;SDS011;39093;52.788;6.940;2023-05-07T12:23:50;9.88;;;8.68;;
53207;SDS011;39093;52.788;6.940;2023-05-07T12:26:18;10.48;;;9.45;;
53207;SDS011;39093;52.788;6.940;2023-05-07T12:28:47;11.60;;;9.73;;
53207;SDS011;39093;52.788;6.940;2023-05-07T12:31:14;10.35;;;8.95;;
53207;SDS011;39093;52.788;6.940;2023-05-07T12:33:42;9.38;;;8.38;;
53207;SDS011;39093;52.788;6.940;2023-05-07T12:36:11;9.25;;;7.45;;
53207;SDS011;39093;52.788;6.940;2023-05-07T12:38:39;8.27;;;7.47;;
53207;SDS011;39093;52.788;6.940;2023-05-07T12:41:07;9.38;;;8.45;;
53207;SDS011;39093;52.788;6.940;2023-05-07T12:43:36;9.25;;;8.00;;
53207;SDS011;39093;52.788;6.940;2023-05-07T12:46:05;8.73;;;7.70;;
53207;SDS011;39093;52.788;6.940;2023-05-07T12:48:35;13.02;;;7.68;;
53207;SDS011;39093;52.788;6.940;2023-05-07T12:51:04;8.73;;;7.88;;
53207;SDS011;39093;52.788;6.940;2023-05-07T12:53:32;9.20;;;7.93;;
53207;SDS011;39093;52.788;6.940;2023-05-07T12:55:59;8.20;;;7.40;;
53207;SDS011;39093;52.788;6.940;2023-05-07T12:58:27;7.38;;;6.60;;
53207;SDS011;39093;52.788;6.940;2023-05-07T13:01:00;7.82;;;7.05;;
53207;SDS011;39093;52.788;6.940;2023-05-07T13:06:01;10.00;;;8.57;;
53207;SDS011;39093;52.788;6.940;2023-05-07T13:08:30;8.10;;;7.30;;
53207;SDS011;39093;52.788;6.940;2023-05-07T13:10:58;8.13;;;7.25;;
53207;SDS011;39093;52.788;6.940;2023-05-07T13:13:30;8.07;;;6.97;;
53207;SDS011;39093;52.788;6.940;2023-05-07T13:15:58;7.70;;;6.97;;
53207;SDS011;39093;52.788;6.940;2023-05-07T13:18:26;7.60;;;6.80;;
53207;SDS011;39093;52.788;6.940;2023-05-07T13:20:55;9.18;;;6.50;;
53207;SDS011;39093;52.788;6.940;2023-05-07T13:23:23;9.50;;;7.65;;
53207;SDS011;39093;52.788;6.940;2023-05-07T13:25:50;9.55;;;8.55;;
53207;SDS011;39093;52.788;6.940;2023-05-07T13:28:18;7.95;;;7.15;;
53207;SDS011;39093;52.788;6.940;2023-05-07T13:30:46;8.82;;;7.25;;
53207;SDS011;39093;52.788;6.940;2023-05-07T13:33:13;8.45;;;7.00;;
53207;SDS011;39093;52.788;6.940;2023-05-07T13:35:42;8.75;;;7.88;;
53207;SDS011;39093;52.788;6.940;2023-05-07T13:38:09;7.60;;;6.88;;
53207;SDS011;39093;52.788;6.940;2023-05-07T13:40:36;7.80;;;7.07;;
53207;SDS011;39093;52.788;6.940;2023-05-07T13:43:05;7.85;;;7.15;;
53207;SDS011;39093;52.788;6.940;2023-05-07T13:45:32;8.18;;;7.20;;
53207;SDS011;39093;52.788;6.940;2023-05-07T13:47:59;8.98;;;7.40;;
53207;SDS011;39093;52.788;6.940;2023-05-07T13:50:27;8.23;;;7.35;;
53207;SDS011;39093;52.788;6.940;2023-05-07T13:52:56;8.52;;;7.03;;
53207;SDS011;39093;52.788;6.940;2023-05-07T13:55:23;8.60;;;6.75;;
53207;SDS011;39093;52.788;6.940;2023-05-07T13:57:54;8.32;;;7.53;;
53207;SDS011;39093;52.788;6.940;2023-05-07T14:00:23;6.95;;;6.35;;
53207;SDS011;39093;52.788;6.940;2023-05-07T14:02:51;7.30;;;6.65;;
53207;SDS011;39093;52.788;6.940;2023-05-07T14:05:19;9.02;;;6.90;;
53207;SDS011;39093;52.788;6.940;2023-05-07T14:07:46;6.95;;;6.25;;
53207;SDS011;39093;52.788;6.940;2023-05-07T14:10:15;7.32;;;6.60;;
53207;SDS011;39093;52.788;6.940;2023-05-07T14:12:42;10.70;;;7.07;;
53207;SDS011;39093;52.788;6.940;2023-05-07T14:15:10;6.57;;;5.93;;
53207;SDS011;39093;52.788;6.940;2023-05-07T14:17:37;6.70;;;6.10;;
53207;SDS011;39093;52.788;6.940;2023-05-07T14:20:04;8.23;;;6.30;;
53207;SDS011;39093;52.788;6.940;2023-05-07T14:22:33;6.63;;;5.95;;
53207;SDS011;39093;52.788;6.940;2023-05-07T14:25:00;7.70;;;6.65;;
53207;SDS011;39093;52.788;6.940;2023-05-07T14:27:32;6.97;;;6.38;;
53207;SDS011;39093;52.788;6.940;2023-05-07T14:29:59;7.30;;;6.60;;
53207;SDS011;39093;52.788;6.940;2023-05-07T14:32:26;15.30;;;6.53;;
53207;SDS011;39093;52.788;6.940;2023-05-07T14:34:53;6.60;;;6.00;;
53207;SDS011;39093;52.788;6.940;2023-05-07T14:37:20;7.32;;;6.63;;
53207;SDS011;39093;52.788;6.940;2023-05-07T14:39:47;9.25;;;7.25;;
53207;SDS011;39093;52.788;6.940;2023-05-07T14:42:16;9.68;;;7.28;;
53207;SDS011;39093;52.788;6.940;2023-05-07T14:44:44;8.48;;;6.80;;
53207;SDS011;39093;52.788;6.940;2023-05-07T14:47:12;9.75;;;8.07;;
53207;SDS011;39093;52.788;6.940;2023-05-07T14:49:39;12.23;;;8.13;;
53207;SDS011;39093;52.788;6.940;2023-05-07T14:52:07;11.13;;;7.90;;
53207;SDS011;39093;52.788;6.940;2023-05-07T14:54:37;12.68;;;9.93;;
53207;SDS011;39093;52.788;6.940;2023-05-07T14:57:05;10.75;;;8.10;;
53207;SDS011;39093;52.788;6.940;2023-05-07T14:59:33;14.07;;;9.02;;
53207;SDS011;39093;52.788;6.940;2023-05-07T15:02:00;10.13;;;9.18;;
53207;SDS011;39093;52.788;6.940;2023-05-07T15:04:32;10.60;;;9.60;;